createdAt,value
2019-03-16T00:02:12.307Z,8.33
2019-03-16T00:04:41.008Z,7.80
2019-03-16T00:07:09.756Z,6.93
2019-03-16T00:09:38.452Z,9.50
2019-03-16T00:12:07.163Z,11.83
2019-03-16T00:14:35.877Z,12.27
2019-03-16T00:17:04.582Z,11.17
2019-03-16T00:19:33.332Z,7.50
2019-03-16T00:22:02.040Z,8.37
2019-03-16T00:24:30.742Z,8.67
2019-03-16T00:26:59.497Z,9.60
2019-03-16T00:29:28.150Z,17.67
2019-03-16T00:31:56.899Z,14.77
2019-03-16T00:34:25.605Z,10.00
2019-03-16T00:36:54.313Z,9.93
2019-03-16T00:39:23.076Z,6.67
2019-03-16T00:41:51.776Z,6.93
2019-03-16T00:44:20.475Z,7.03
2019-03-16T00:46:49.208Z,7.40
2019-03-16T00:49:17.914Z,8.00
2019-03-16T00:51:48.327Z,7.10
2019-03-16T00:54:17.035Z,7.27
2019-03-16T00:56:45.741Z,6.07
2019-03-16T00:59:14.452Z,5.43
2019-03-16T01:01:43.154Z,4.50
2019-03-16T01:04:11.955Z,4.00
2019-03-16T01:06:40.647Z,3.20
2019-03-16T01:09:09.354Z,5.13
2019-03-16T01:11:38.126Z,4.27
2019-03-16T01:14:06.852Z,3.70
2019-03-16T01:16:35.557Z,4.37
2019-03-16T01:19:04.279Z,3.63
2019-03-16T01:21:33.191Z,5.33
2019-03-16T01:24:01.938Z,4.43
2019-03-16T01:26:30.653Z,4.67
2019-03-16T01:28:59.360Z,5.70
2019-03-16T01:31:28.067Z,4.27
2019-03-16T01:33:56.776Z,5.40
2019-03-16T01:36:25.520Z,5.10
2019-03-16T01:38:54.219Z,3.57
2019-03-16T01:41:22.920Z,4.17
2019-03-16T01:43:51.641Z,3.07
2019-03-16T01:46:20.351Z,5.03
2019-03-16T01:48:51.681Z,4.63
2019-03-16T01:51:20.388Z,3.87
2019-03-16T01:53:49.091Z,5.87
2019-03-16T01:56:17.800Z,4.00
2019-03-16T01:58:46.511Z,4.13
2019-03-16T02:01:15.253Z,5.37
2019-03-16T02:03:43.954Z,4.40
2019-03-16T02:06:12.646Z,4.27
2019-03-16T02:08:41.353Z,5.70
2019-03-16T02:11:10.053Z,5.83
2019-03-16T02:13:38.796Z,3.63
2019-03-16T02:16:11.204Z,4.00
2019-03-16T02:18:37.918Z,5.73
2019-03-16T02:21:06.623Z,4.23
2019-03-16T02:23:35.333Z,4.00
2019-03-16T02:26:04.065Z,3.73
2019-03-16T02:28:32.767Z,4.17
2019-03-16T02:31:01.476Z,5.17
2019-03-16T02:33:30.210Z,3.57
2019-03-16T02:35:58.886Z,5.27
2019-03-16T02:38:27.642Z,4.33
2019-03-16T02:40:56.367Z,14.63
2019-03-16T02:43:25.071Z,6.43
2019-03-16T02:45:53.774Z,4.03
2019-03-16T02:48:22.505Z,5.53
2019-03-16T02:50:51.232Z,4.10
2019-03-16T02:53:19.949Z,3.60
2019-03-16T02:55:48.657Z,3.73
2019-03-16T02:58:17.363Z,3.63
2019-03-16T03:00:46.062Z,3.00
2019-03-16T03:03:28.608Z,3.20
2019-03-16T03:05:45.233Z,2.77
2019-03-16T03:08:13.927Z,4.30
2019-03-16T03:10:42.631Z,2.73
2019-03-16T03:13:13.525Z,4.80
2019-03-16T03:15:41.807Z,3.47
2019-03-16T03:18:10.510Z,3.60
2019-03-16T03:20:39.217Z,3.23
2019-03-16T03:23:07.939Z,4.10
2019-03-16T03:25:36.625Z,3.93
2019-03-16T03:28:05.391Z,4.53
2019-03-16T03:30:34.133Z,4.83
2019-03-16T03:33:02.873Z,2.90
2019-03-16T03:35:31.573Z,2.53
2019-03-16T03:38:00.389Z,3.63
2019-03-16T03:40:29.095Z,4.23
2019-03-16T03:42:57.798Z,2.70
2019-03-16T03:45:26.497Z,2.97
2019-03-16T03:47:55.207Z,2.30
2019-03-16T03:50:23.910Z,2.57
2019-03-16T03:52:52.663Z,2.70
2019-03-16T03:55:21.463Z,5.63
2019-03-16T03:57:50.266Z,5.50
2019-03-16T04:00:19.282Z,6.00
2019-03-16T04:02:50.835Z,12.50
2019-03-16T04:05:19.598Z,11.97
2019-03-16T04:07:48.308Z,6.40
2019-03-16T04:10:17.015Z,21.07
2019-03-16T04:12:48.514Z,8.57
2019-03-16T04:15:17.241Z,7.87
2019-03-16T04:17:48.491Z,7.63
2019-03-16T04:20:17.190Z,4.20
2019-03-16T04:22:45.892Z,4.90
2019-03-16T04:25:14.602Z,9.80
2019-03-16T04:27:43.305Z,19.07
2019-03-16T04:30:13.033Z,52.73
2019-03-16T04:32:41.741Z,34.10
2019-03-16T04:35:10.551Z,20.00
2019-03-16T04:37:39.290Z,8.17
2019-03-16T04:40:10.113Z,18.90
2019-03-16T04:42:38.819Z,28.73
2019-03-16T04:45:09.752Z,32.70
2019-03-16T04:47:38.458Z,33.43
2019-03-16T04:50:09.586Z,15.90
2019-03-16T04:52:38.301Z,17.77
2019-03-16T04:55:08.608Z,20.47
2019-03-16T04:57:37.319Z,18.33
2019-03-16T05:00:11.249Z,25.90
2019-03-16T05:02:39.991Z,14.97
2019-03-16T05:05:08.804Z,13.43
2019-03-16T05:07:37.499Z,33.63
2019-03-16T05:10:08.994Z,66.07
2019-03-16T05:12:37.719Z,46.63
2019-03-16T05:15:08.158Z,30.37
2019-03-16T05:17:36.864Z,24.97
2019-03-16T05:20:08.826Z,67.53
2019-03-16T05:22:37.544Z,34.40
2019-03-16T05:25:08.861Z,45.27
2019-03-16T05:27:37.691Z,41.23
2019-03-16T05:30:09.304Z,16.53
2019-03-16T05:32:38.018Z,21.30
2019-03-16T05:35:07.767Z,53.37
2019-03-16T05:37:36.480Z,34.23
2019-03-16T05:40:09.987Z,33.93
2019-03-16T05:42:38.725Z,21.40
2019-03-16T05:45:09.197Z,19.37
2019-03-16T05:47:38.406Z,30.13
2019-03-16T05:50:10.043Z,46.30
2019-03-16T05:52:38.747Z,56.67
2019-03-16T05:55:07.604Z,112.40
2019-03-16T05:57:36.315Z,64.40
2019-03-16T06:00:10.553Z,58.50
2019-03-16T06:02:39.273Z,47.27
2019-03-16T06:05:11.105Z,28.40
2019-03-16T06:07:38.458Z,31.27
2019-03-16T06:10:09.470Z,19.00
2019-03-16T06:12:38.253Z,38.80
2019-03-16T06:15:09.370Z,15.33
2019-03-16T06:17:38.076Z,12.63
2019-03-16T06:20:11.791Z,77.00
2019-03-16T06:22:40.504Z,25.70
2019-03-16T06:25:09.723Z,103.03
2019-03-16T06:27:38.483Z,24.07
2019-03-16T06:30:15.290Z,69.33
2019-03-16T06:32:44.172Z,32.93
2019-03-16T06:35:24.098Z,31.10
2019-03-16T06:37:43.418Z,27.73
2019-03-16T06:40:12.444Z,25.70
2019-03-16T06:42:41.151Z,19.23
2019-03-16T06:45:11.516Z,80.73
2019-03-16T06:47:40.222Z,26.57
2019-03-16T06:50:14.030Z,10.80
2019-03-16T06:52:42.753Z,12.20
2019-03-16T06:55:11.976Z,74.27
2019-03-16T06:57:40.820Z,118.03
2019-03-16T07:00:15.187Z,13.90
2019-03-16T07:02:43.889Z,12.30
2019-03-16T07:05:13.309Z,25.30
2019-03-16T07:07:42.043Z,20.47
2019-03-16T07:10:14.352Z,25.90
2019-03-16T07:12:43.105Z,22.97
2019-03-16T07:15:14.061Z,15.83
2019-03-16T07:17:42.806Z,16.13
2019-03-16T07:20:12.942Z,42.50
2019-03-16T07:22:41.634Z,18.70
2019-03-16T07:25:10.564Z,16.57
2019-03-16T07:27:39.279Z,16.33
2019-03-16T07:30:10.940Z,16.80
2019-03-16T07:32:39.729Z,18.20
2019-03-16T07:35:08.658Z,58.07
2019-03-16T07:37:37.375Z,41.03
2019-03-16T07:40:08.534Z,28.43
2019-03-16T07:42:37.300Z,29.97
2019-03-16T07:45:08.998Z,28.77
2019-03-16T07:47:37.948Z,11.73
2019-03-16T07:50:09.215Z,27.40
2019-03-16T07:52:37.936Z,15.73
2019-03-16T07:55:07.608Z,20.10
2019-03-16T07:57:40.459Z,21.80
2019-03-16T08:00:09.759Z,12.40
2019-03-16T08:02:38.478Z,19.60
2019-03-16T08:05:17.232Z,9.47
2019-03-16T08:07:37.773Z,21.87
2019-03-16T08:10:09.094Z,43.73
2019-03-16T08:12:37.808Z,15.80
2019-03-16T08:15:08.449Z,45.87
2019-03-16T08:17:37.161Z,23.60
2019-03-16T08:20:10.002Z,31.80
2019-03-16T08:22:38.717Z,26.53
2019-03-16T08:25:08.332Z,11.83
2019-03-16T08:27:37.086Z,9.60
2019-03-16T08:30:10.819Z,14.13
2019-03-16T08:32:39.530Z,8.33
2019-03-16T08:35:09.253Z,10.57
2019-03-16T08:37:37.972Z,9.20
2019-03-16T08:40:09.223Z,7.83
2019-03-16T08:42:37.931Z,15.23
2019-03-16T08:45:08.643Z,16.67
2019-03-16T08:47:37.408Z,11.63
2019-03-16T08:50:07.625Z,14.53
2019-03-16T08:52:36.338Z,18.03
2019-03-16T08:55:06.083Z,9.03
2019-03-16T08:57:34.796Z,4.40
2019-03-16T09:00:04.010Z,3.53
2019-03-16T09:02:32.769Z,10.63
2019-03-16T09:05:01.471Z,4.60
2019-03-16T09:07:30.176Z,5.73
2019-03-16T09:09:58.899Z,2.53
2019-03-16T09:12:28.649Z,5.83
2019-03-16T09:14:57.400Z,5.10
2019-03-16T09:17:26.113Z,6.57
2019-03-16T09:19:54.826Z,10.53
2019-03-16T09:22:23.575Z,4.27
2019-03-16T09:24:52.293Z,4.27
2019-03-16T09:27:30.576Z,6.03
2019-03-16T09:29:51.448Z,3.87
2019-03-16T09:32:20.154Z,6.07
2019-03-16T09:34:49.394Z,7.40
2019-03-16T09:37:18.098Z,9.00
2019-03-16T09:39:46.808Z,4.27
2019-03-16T09:42:15.553Z,4.83
2019-03-16T09:44:44.270Z,4.60
2019-03-16T09:47:12.987Z,3.87
2019-03-16T09:49:41.694Z,6.67
2019-03-16T09:52:10.401Z,4.97
2019-03-16T09:54:39.148Z,6.73
2019-03-16T09:57:07.850Z,7.17
2019-03-16T09:59:36.552Z,6.20
2019-03-16T10:02:05.405Z,4.07
2019-03-16T10:04:34.114Z,5.63
2019-03-16T10:07:02.864Z,4.20
2019-03-16T10:09:31.565Z,2.87
2019-03-16T10:12:00.272Z,11.70
2019-03-16T10:14:29.059Z,11.73
2019-03-16T10:16:57.774Z,11.80
2019-03-16T10:19:26.485Z,7.77
2019-03-16T10:21:55.199Z,7.60
2019-03-16T10:24:23.898Z,7.83
2019-03-16T10:26:52.651Z,27.90
2019-03-16T10:29:21.361Z,6.50
2019-03-16T10:31:50.069Z,10.83
2019-03-16T10:34:18.788Z,7.10
2019-03-16T10:36:47.503Z,18.27
2019-03-16T10:39:16.243Z,9.23
2019-03-16T10:41:44.952Z,12.00
2019-03-16T10:44:13.654Z,9.43
2019-03-16T10:46:42.377Z,10.67
2019-03-16T10:49:11.081Z,6.67
2019-03-16T10:51:39.860Z,5.80
2019-03-16T10:54:08.571Z,6.57
2019-03-16T10:56:37.271Z,10.57
2019-03-16T10:59:06.016Z,6.73
2019-03-16T11:01:34.720Z,6.10
2019-03-16T11:04:03.430Z,4.40
2019-03-16T11:06:32.195Z,4.93
2019-03-16T11:09:00.908Z,10.10
2019-03-16T11:11:29.644Z,3.93
2019-03-16T11:13:58.355Z,5.40
2019-03-16T11:16:27.059Z,8.20
2019-03-16T11:18:55.778Z,13.27
2019-03-16T11:21:24.477Z,7.20
2019-03-16T11:23:53.195Z,10.40
2019-03-16T11:26:21.905Z,9.27
2019-03-16T11:28:50.615Z,6.33
2019-03-16T11:31:19.322Z,1.80
2019-03-16T11:33:49.488Z,8.60
2019-03-16T11:36:18.192Z,5.47
2019-03-16T11:38:50.289Z,7.07
2019-03-16T11:41:19.044Z,9.57
2019-03-16T11:43:47.760Z,9.93
2019-03-16T11:46:16.467Z,4.03
2019-03-16T11:48:45.225Z,2.53
2019-03-16T11:51:13.928Z,2.27
2019-03-16T11:53:42.644Z,5.70
2019-03-16T11:56:18.091Z,2.67
2019-03-16T11:58:41.819Z,2.30
2019-03-16T12:01:10.527Z,4.70
2019-03-16T12:03:39.282Z,9.47
2019-03-16T12:06:07.980Z,11.13
2019-03-16T12:08:39.505Z,7.47
2019-03-16T12:11:07.132Z,5.20
2019-03-16T12:13:35.837Z,7.87
2019-03-16T12:16:04.603Z,16.00
2019-03-16T12:18:33.314Z,10.43
2019-03-16T12:21:02.034Z,14.57
2019-03-16T12:23:30.788Z,13.23
2019-03-16T12:25:59.508Z,27.93
2019-03-16T12:28:28.218Z,18.97
2019-03-16T12:30:56.933Z,8.53
2019-03-16T12:33:25.645Z,17.20
2019-03-16T12:35:54.401Z,10.67
2019-03-16T12:38:23.117Z,7.97
2019-03-16T12:40:51.832Z,6.67
2019-03-16T12:43:20.596Z,10.93
2019-03-16T12:45:49.443Z,6.23
2019-03-16T12:48:18.138Z,4.87
2019-03-16T12:50:48.805Z,10.50
2019-03-16T12:53:17.515Z,17.07
2019-03-16T12:55:49.552Z,10.93
2019-03-16T12:58:18.261Z,29.23
2019-03-16T13:00:46.974Z,39.70
2019-03-16T13:03:15.751Z,42.57
2019-03-16T13:05:44.531Z,41.07
2019-03-16T13:08:13.256Z,17.17
2019-03-16T13:10:42.015Z,19.47
2019-03-16T13:13:10.725Z,21.73
2019-03-16T13:15:39.431Z,2.93
2019-03-16T13:18:08.151Z,7.60
2019-03-16T13:20:36.864Z,10.70
2019-03-16T13:23:05.639Z,17.67
2019-03-16T13:25:34.363Z,14.93
2019-03-16T13:28:03.076Z,10.17
2019-03-16T13:30:31.839Z,3.10
2019-03-16T13:33:00.551Z,4.77
2019-03-16T13:35:29.384Z,7.00
2019-03-16T13:37:58.090Z,6.10
2019-03-16T13:40:26.807Z,4.47
2019-03-16T13:42:55.551Z,7.77
2019-03-16T13:45:24.251Z,9.77
2019-03-16T13:47:52.964Z,10.47
2019-03-16T13:50:22.019Z,14.73
2019-03-16T13:52:51.018Z,13.77
2019-03-16T13:55:19.724Z,10.33
2019-03-16T13:57:48.853Z,10.27
2019-03-16T14:00:18.947Z,15.37
2019-03-16T14:02:49.598Z,9.27
2019-03-16T14:05:18.311Z,11.13
2019-03-16T14:07:47.010Z,8.23
2019-03-16T14:10:20.389Z,3.73
2019-03-16T14:12:49.108Z,9.43
2019-03-16T14:15:17.832Z,21.77
2019-03-16T14:17:48.881Z,19.77
2019-03-16T14:20:18.069Z,16.20
2019-03-16T14:22:49.016Z,27.37
2019-03-16T14:25:17.727Z,19.17
2019-03-16T14:27:46.444Z,16.50
2019-03-16T14:30:39.477Z,65.93
2019-03-16T14:32:50.085Z,38.60
2019-03-16T14:35:18.836Z,32.00
2019-03-16T14:37:47.551Z,28.87
2019-03-16T14:40:16.519Z,27.53
2019-03-16T14:42:45.316Z,29.03
2019-03-16T14:45:15.204Z,16.40
2019-03-16T14:47:44.029Z,14.53
2019-03-16T14:50:20.853Z,32.20
2019-03-16T14:52:49.572Z,18.27
2019-03-16T14:55:18.409Z,15.27
2019-03-16T14:57:47.129Z,12.23
2019-03-16T15:00:17.147Z,10.97
2019-03-16T15:02:46.801Z,8.13
2019-03-16T15:05:15.905Z,18.87
2019-03-16T15:07:44.653Z,14.20
2019-03-16T15:10:17.456Z,14.20
2019-03-16T15:12:46.171Z,12.53
2019-03-16T15:15:18.806Z,7.30
2019-03-16T15:17:47.516Z,5.20
2019-03-16T15:20:16.220Z,5.63
2019-03-16T15:22:44.978Z,7.93
2019-03-16T15:25:14.586Z,10.53
2019-03-16T15:27:43.304Z,10.90
2019-03-16T15:30:20.366Z,36.37
2019-03-16T15:32:49.074Z,6.77
2019-03-16T15:35:17.826Z,17.13
2019-03-16T15:37:46.558Z,59.30
2019-03-16T15:40:16.072Z,89.93
2019-03-16T15:42:44.787Z,72.10
2019-03-16T15:45:16.164Z,55.73
2019-03-16T15:47:44.925Z,40.47
2019-03-16T15:50:13.634Z,75.07
2019-03-16T15:52:42.365Z,74.87
2019-03-16T15:55:11.276Z,72.50
2019-03-16T15:57:42.542Z,54.80
2019-03-16T16:00:15.585Z,62.47
2019-03-16T16:02:44.309Z,28.83
2019-03-16T16:05:13.427Z,27.07
2019-03-16T16:07:42.169Z,65.17
2019-03-16T16:10:15.741Z,31.40
2019-03-16T16:12:44.491Z,43.33
2019-03-16T16:15:13.612Z,24.70
2019-03-16T16:17:42.417Z,15.43
2019-03-16T16:20:12.569Z,13.53
2019-03-16T16:22:41.279Z,22.23
2019-03-16T16:25:11.961Z,24.83
2019-03-16T16:27:40.680Z,27.00
2019-03-16T16:30:16.450Z,12.87
2019-03-16T16:32:45.221Z,15.23
2019-03-16T16:35:15.035Z,12.33
2019-03-16T16:37:43.748Z,21.67
2019-03-16T16:40:14.725Z,106.43
2019-03-16T16:42:43.435Z,51.80
2019-03-16T16:45:14.345Z,128.53
2019-03-16T16:47:43.076Z,114.10
2019-03-16T16:50:19.962Z,115.20
2019-03-16T16:52:49.077Z,131.53
2019-03-16T16:55:17.795Z,77.30
2019-03-16T16:57:46.503Z,33.57
2019-03-16T17:00:19.488Z,34.50
2019-03-16T17:02:48.254Z,38.97
2019-03-16T17:05:17.069Z,28.40
2019-03-16T17:07:45.789Z,27.33
2019-03-16T17:10:17.821Z,17.00
2019-03-16T17:12:49.146Z,353.27
2019-03-16T17:15:21.969Z,293.13
2019-03-16T17:17:50.734Z,146.60
2019-03-16T17:20:19.549Z,73.73
2019-03-16T17:22:48.265Z,39.63
2019-03-16T17:25:17.242Z,19.90
2019-03-16T17:27:45.960Z,19.53
2019-03-16T17:30:22.574Z,11.57
2019-03-16T17:32:51.345Z,28.87
2019-03-16T17:35:20.060Z,24.10
2019-03-16T17:37:50.544Z,12.40
2019-03-16T17:40:19.261Z,10.20
2019-03-16T17:42:47.951Z,8.20
2019-03-16T17:45:16.678Z,14.70
2019-03-16T17:47:45.393Z,9.30
2019-03-16T17:50:15.248Z,6.50
2019-03-16T17:52:43.920Z,10.80
2019-03-16T17:55:17.023Z,8.23
2019-03-16T17:57:45.960Z,9.20
2019-03-16T18:00:18.464Z,29.57
2019-03-16T18:02:52.654Z,28.07
2019-03-16T18:05:19.114Z,34.10
2019-03-16T18:07:47.830Z,14.87
2019-03-16T18:10:16.788Z,8.70
2019-03-16T18:12:45.496Z,8.97
2019-03-16T18:15:18.305Z,15.57
2019-03-16T18:17:49.886Z,16.63
2019-03-16T18:20:19.199Z,12.90
2019-03-16T18:22:49.359Z,13.50
2019-03-16T18:25:18.316Z,14.40
2019-03-16T18:27:47.035Z,29.23
2019-03-16T18:30:21.588Z,36.13
2019-03-16T18:32:50.300Z,30.83
2019-03-16T18:35:19.019Z,22.93
2019-03-16T18:37:47.776Z,18.67
2019-03-16T18:40:16.889Z,22.50
2019-03-16T18:42:45.604Z,81.60
2019-03-16T18:45:16.222Z,27.10
2019-03-16T18:47:44.979Z,19.33
2019-03-16T18:50:13.887Z,54.03
2019-03-16T18:52:42.636Z,42.57
2019-03-16T18:55:12.994Z,49.37
2019-03-16T18:57:43.557Z,46.43
2019-03-16T19:00:15.044Z,29.70
2019-03-16T19:02:43.833Z,18.70
2019-03-16T19:05:12.581Z,21.83
2019-03-16T19:07:41.300Z,25.07
2019-03-16T19:10:12.922Z,17.13
2019-03-16T19:12:41.649Z,16.93
2019-03-16T19:15:15.276Z,13.57
2019-03-16T19:17:43.995Z,21.60
2019-03-16T19:20:17.351Z,21.60
2019-03-16T19:22:51.385Z,27.03
2019-03-16T19:25:23.735Z,17.50
2019-03-16T19:27:52.465Z,15.27
2019-03-16T19:30:21.354Z,13.37
2019-03-16T19:32:50.140Z,12.97
2019-03-16T19:35:18.860Z,10.13
2019-03-16T19:37:47.569Z,8.17
2019-03-16T19:40:18.319Z,8.37
2019-03-16T19:42:47.446Z,10.90
2019-03-16T19:45:16.249Z,8.87
2019-03-16T19:47:44.952Z,7.00
2019-03-16T19:50:15.018Z,9.30
2019-03-16T19:52:43.718Z,9.93
2019-03-16T19:55:13.456Z,8.93
2019-03-16T19:57:42.170Z,7.27
2019-03-16T20:00:15.262Z,9.00
2019-03-16T20:02:50.257Z,6.40
2019-03-16T20:05:14.963Z,7.50
2019-03-16T20:07:43.700Z,8.57
2019-03-16T20:10:17.197Z,17.13
2019-03-16T20:12:45.952Z,7.57
2019-03-16T20:15:15.710Z,10.40
2019-03-16T20:17:44.421Z,9.03
2019-03-16T20:20:14.436Z,7.43
2019-03-16T20:22:43.197Z,7.90
2019-03-16T20:25:12.589Z,7.37
2019-03-16T20:27:41.302Z,7.63
2019-03-16T20:30:25.784Z,7.27
2019-03-16T20:33:02.655Z,8.80
2019-03-16T20:35:20.657Z,6.00
2019-03-16T20:37:49.967Z,7.67
2019-03-16T20:40:18.678Z,7.03
2019-03-16T20:42:49.961Z,8.43
2019-03-16T20:45:18.865Z,8.27
2019-03-16T20:47:47.551Z,9.37
2019-03-16T20:50:17.694Z,6.10
2019-03-16T20:52:46.413Z,8.27
2019-03-16T20:55:15.120Z,8.53
2019-03-16T20:57:43.839Z,9.07
2019-03-16T21:00:15.466Z,7.93
2019-03-16T21:02:44.240Z,12.47
2019-03-16T21:05:13.055Z,31.17
2019-03-16T21:07:41.778Z,28.90
2019-03-16T21:10:12.470Z,11.73
2019-03-16T21:12:41.394Z,18.27
2019-03-16T21:15:14.916Z,14.87
2019-03-16T21:17:43.644Z,13.30
2019-03-16T21:20:17.178Z,10.90
2019-03-16T21:22:49.300Z,11.90
2019-03-16T21:25:18.301Z,9.57
2019-03-16T21:27:49.442Z,9.97
2019-03-16T21:30:22.489Z,6.60
2019-03-16T21:32:51.205Z,7.77
2019-03-16T21:35:20.056Z,7.57
2019-03-16T21:37:48.769Z,8.20
2019-03-16T21:40:17.482Z,8.03
2019-03-16T21:42:50.149Z,8.23
2019-03-16T21:45:18.849Z,8.27
2019-03-16T21:47:59.947Z,6.83
2019-03-16T21:50:21.415Z,9.13
2019-03-16T21:52:50.120Z,9.93
2019-03-16T21:55:19.000Z,9.10
2019-03-16T21:57:47.729Z,11.07
2019-03-16T22:00:19.497Z,11.10
2019-03-16T22:02:51.417Z,9.73
2019-03-16T22:05:20.227Z,10.30
2019-03-16T22:07:50.104Z,13.20
2019-03-16T22:10:18.852Z,13.27
2019-03-16T22:12:47.565Z,13.60
2019-03-16T22:15:17.792Z,12.50
2019-03-16T22:17:46.687Z,14.57
2019-03-16T22:20:19.372Z,12.27
2019-03-16T22:22:48.071Z,15.73
2019-03-16T22:25:16.784Z,15.90
2019-03-16T22:27:45.624Z,8.60
2019-03-16T22:30:15.524Z,9.17
2019-03-16T22:32:44.248Z,13.47
2019-03-16T22:35:12.998Z,8.50
2019-03-16T22:37:41.712Z,7.47
2019-03-16T22:40:14.329Z,6.37
2019-03-16T22:42:43.131Z,9.00
2019-03-16T22:45:15.288Z,6.93
2019-03-16T22:47:44.033Z,7.97
2019-03-16T22:50:15.029Z,10.60
2019-03-16T22:52:43.772Z,7.83
2019-03-16T22:55:15.486Z,10.07
2019-03-16T22:57:42.930Z,7.87
2019-03-16T23:00:20.649Z,7.17
2019-03-16T23:02:49.554Z,11.03
2019-03-16T23:05:18.274Z,9.97
2019-03-16T23:07:46.988Z,9.50
2019-03-16T23:10:15.694Z,7.80
2019-03-16T23:12:45.146Z,8.23
2019-03-16T23:15:13.852Z,7.30
2019-03-16T23:17:42.562Z,6.87
2019-03-16T23:20:11.606Z,6.00
2019-03-16T23:22:40.319Z,9.80
2019-03-16T23:25:10.826Z,8.70
2019-03-16T23:27:39.544Z,9.93
2019-03-16T23:30:09.846Z,6.50
2019-03-16T23:32:38.687Z,5.23
2019-03-16T23:35:09.069Z,5.13
2019-03-16T23:37:37.777Z,6.80
2019-03-16T23:40:11.094Z,6.77
2019-03-16T23:42:39.804Z,12.47
2019-03-16T23:45:10.877Z,5.93
2019-03-16T23:47:39.580Z,9.40
2019-03-16T23:50:10.289Z,7.13
2019-03-16T23:52:39.003Z,5.63
2019-03-16T23:55:09.313Z,5.87
2019-03-16T23:57:38.060Z,6.90
